createdAt,value
2023-02-11T00:06:27.509Z,6.3
2023-02-11T00:16:27.766Z,6.3
2023-02-11T00:26:28.430Z,6.3
2023-02-11T00:56:31.244Z,6.5
2023-02-11T01:06:31.410Z,6.5
2023-02-11T01:16:31.712Z,6.5
2023-02-11T01:26:31.972Z,6.4
2023-02-11T01:36:32.847Z,6.4
2023-02-11T01:46:33.276Z,6.5
2023-02-11T01:56:33.905Z,6.4
2023-02-11T02:06:34.965Z,6.3
2023-02-11T02:26:37.004Z,6.3
2023-02-11T02:36:37.967Z,6.3
2023-02-11T02:46:38.544Z,6.2
2023-02-11T02:56:39.298Z,6.2
2023-02-11T03:06:39.669Z,6.2
2023-02-11T03:16:40.608Z,6.2
2023-02-11T03:26:40.996Z,6.1
2023-02-11T03:46:42.326Z,6.1
2023-02-11T03:56:42.847Z,6
2023-02-11T04:06:43.693Z,6
2023-02-11T04:26:45.623Z,6
2023-02-11T04:36:46.689Z,6
2023-02-11T04:46:46.996Z,6
2023-02-11T04:56:47.561Z,6
2023-02-11T05:06:48.143Z,5.9
2023-02-11T05:16:48.550Z,5.9
2023-02-11T05:26:48.662Z,5.9
2023-02-11T05:36:49.109Z,5.8
2023-02-11T05:46:49.531Z,5.8
2023-02-11T05:56:49.669Z,5.8
2023-02-11T06:06:50.684Z,5.7
2023-02-11T06:16:51.536Z,5.7
2023-02-11T06:36:52.601Z,5.7
2023-02-11T06:46:53.649Z,5.7
2023-02-11T06:56:54.124Z,5.7
2023-02-11T07:06:54.534Z,5.7
2023-02-11T07:16:54.762Z,5.8
2023-02-11T07:26:54.916Z,5.8
2023-02-11T07:36:55.750Z,5.8
2023-02-11T07:46:56.216Z,5.9
2023-02-11T07:56:56.685Z,5.9
2023-02-11T08:06:58.927Z,6
2023-02-11T08:16:57.415Z,6
2023-02-11T08:26:58.106Z,6.1
2023-02-11T08:36:58.592Z,6.1
2023-02-11T08:46:58.964Z,6.2
2023-02-11T08:56:59.883Z,6.3
2023-02-11T09:07:00.927Z,6.4
2023-02-11T09:17:01.295Z,6.5
2023-02-11T09:27:01.571Z,6.6
2023-02-11T09:37:01.892Z,6.6
2023-02-11T09:47:02.832Z,6.7
2023-02-11T09:57:03.448Z,6.8
2023-02-11T10:07:04.511Z,6.9
2023-02-11T10:17:05.603Z,6.9
2023-02-11T10:37:07.066Z,7.1
2023-02-11T10:47:07.936Z,7.2
2023-02-11T10:57:08.703Z,7.3
2023-02-11T11:07:09.252Z,7.4
2023-02-11T11:27:11.049Z,7.5
2023-02-11T11:37:11.620Z,7.6
2023-02-11T11:47:12.303Z,7.6
2023-02-11T11:57:12.924Z,7.7
2023-02-11T12:07:13.586Z,7.8
2023-02-11T12:17:14.384Z,7.9
2023-02-11T12:27:15.316Z,8
2023-02-11T12:37:16.036Z,8.2
2023-02-11T12:47:16.281Z,8.3
2023-02-11T13:07:17.584Z,8.6
2023-02-11T13:17:18.394Z,8.7
2023-02-11T13:27:18.593Z,8.7
2023-02-11T13:37:19.218Z,8.7
2023-02-11T13:47:19.482Z,8.7
2023-02-11T13:57:19.602Z,8.8
2023-02-11T14:17:20.735Z,8.8
2023-02-11T14:27:20.972Z,8.8
2023-02-11T14:37:21.093Z,8.8
2023-02-11T14:47:21.401Z,8.8
2023-02-11T14:57:22.493Z,8.8
2023-02-11T15:07:23.547Z,8.8
2023-02-11T15:27:24.778Z,8.9
2023-02-11T15:37:25.670Z,8.9
2023-02-11T15:57:26.746Z,8.9
2023-02-11T16:07:27.437Z,8.7
2023-02-11T16:17:28.496Z,8.7
2023-02-11T16:27:29.377Z,8.6
2023-02-11T16:37:30.435Z,8.5
2023-02-11T16:47:30.872Z,8.6
2023-02-11T16:57:31.423Z,8.5
2023-02-11T17:07:32.347Z,8.5
2023-02-11T17:17:32.679Z,8.5
2023-02-11T17:27:33.296Z,8.5
2023-02-11T17:37:33.980Z,8.5
2023-02-11T17:47:35.017Z,8.5
2023-02-11T17:57:35.641Z,8.4
2023-02-11T18:07:36.353Z,8.3
2023-02-11T18:17:36.759Z,8.3
2023-02-11T18:27:37.769Z,8.3
2023-02-11T18:37:38.408Z,8.3
2023-02-11T18:47:39.334Z,8.2
2023-02-11T18:57:40.268Z,8.3
2023-02-11T19:07:40.976Z,8.3
2023-02-11T19:17:41.257Z,8.2
2023-02-11T19:37:42.418Z,8.2
2023-02-11T19:57:43.368Z,8.2
2023-02-11T20:07:44.010Z,8.2
2023-02-11T20:17:44.362Z,8.1
2023-02-11T20:37:45.767Z,8.1
2023-02-11T20:47:46.619Z,8.1
2023-02-11T20:57:47.312Z,8.1
2023-02-11T21:17:48.276Z,8
2023-02-11T21:27:48.933Z,8
2023-02-11T21:47:50.099Z,8
2023-02-11T21:57:50.409Z,8
2023-02-11T22:07:50.738Z,7.9
2023-02-11T22:27:51.597Z,7.8
2023-02-11T22:37:52.338Z,7.8
2023-02-11T22:47:52.690Z,7.8
2023-02-11T22:57:53.132Z,7.8
2023-02-11T23:07:54.033Z,7.8
2023-02-11T23:17:54.987Z,7.7
2023-02-11T23:27:55.671Z,7.7
2023-02-11T23:37:56.543Z,7.7
2023-02-11T23:47:56.933Z,7.6
2023-02-11T23:57:57.347Z,7.6
